createdAt,value
2016-03-19T00:00:05.733Z,0
2016-03-19T00:01:05.736Z,0
2016-03-19T00:02:05.723Z,0
2016-03-19T00:03:05.709Z,0
2016-03-19T00:04:05.712Z,0
2016-03-19T00:05:05.731Z,0
2016-03-19T00:06:05.702Z,0
2016-03-19T00:07:05.705Z,0
2016-03-19T00:08:05.738Z,0
2016-03-19T00:09:05.710Z,0
2016-03-19T00:10:05.713Z,0
2016-03-19T00:11:05.716Z,0
2016-03-19T00:12:05.718Z,0
2016-03-19T00:13:05.705Z,0
2016-03-19T00:14:05.708Z,0
2016-03-19T00:15:05.710Z,0
2016-03-19T00:16:05.713Z,0
2016-03-19T00:17:05.716Z,0
2016-03-19T00:18:05.687Z,0
2016-03-19T00:19:05.706Z,0
2016-03-19T00:20:05.724Z,0
2016-03-19T00:21:05.727Z,0
2016-03-19T00:22:05.713Z,0
2016-03-19T00:23:05.685Z,0
2016-03-19T00:24:05.688Z,0
2016-03-19T00:25:05.691Z,0
2016-03-19T00:26:05.678Z,0
2016-03-19T00:27:05.681Z,0
2016-03-19T00:28:05.684Z,0
2016-03-19T00:29:05.686Z,0
2016-03-19T00:30:05.704Z,0
2016-03-19T00:31:05.567Z,0
2016-03-19T00:32:05.695Z,0
2016-03-19T00:33:05.697Z,0
2016-03-19T00:34:05.700Z,0
2016-03-19T00:35:05.765Z,0
2016-03-19T00:36:05.673Z,0
2016-03-19T00:37:05.692Z,0
2016-03-19T00:38:05.678Z,0
2016-03-19T00:39:05.667Z,0
2016-03-19T00:40:05.700Z,0
2016-03-19T00:41:05.687Z,0
2016-03-19T00:42:05.689Z,0
2016-03-19T00:43:05.677Z,0
2016-03-19T00:44:05.679Z,0
2016-03-19T00:45:05.698Z,0
2016-03-19T00:46:05.654Z,0
2016-03-19T00:47:05.672Z,0
2016-03-19T00:48:05.691Z,0
2016-03-19T00:49:05.505Z,0
2016-03-19T00:50:05.664Z,0
2016-03-19T00:51:05.667Z,0
2016-03-19T00:52:05.670Z,0
2016-03-19T00:53:05.688Z,0
2016-03-19T00:54:05.660Z,0
2016-03-19T00:55:05.647Z,0
2016-03-19T00:56:05.649Z,0
2016-03-19T00:57:05.699Z,0
2016-03-19T00:58:05.671Z,0
2016-03-19T00:59:05.688Z,0
2016-03-19T01:00:05.660Z,0
2016-03-19T01:01:05.663Z,0
2016-03-19T01:02:05.634Z,0
2016-03-19T01:03:05.653Z,0
2016-03-19T01:04:05.670Z,0
2016-03-19T01:05:05.643Z,0
2016-03-19T01:06:05.645Z,0
2016-03-19T01:07:05.664Z,0
2016-03-19T01:08:05.635Z,0
2016-03-19T01:09:05.644Z,0
2016-03-19T01:10:05.606Z,0
2016-03-19T01:11:05.600Z,0
2016-03-19T01:12:05.640Z,0
2016-03-19T01:13:05.617Z,0
2016-03-19T01:14:05.584Z,0
2016-03-19T01:15:05.583Z,0
2016-03-19T01:16:05.567Z,0
2016-03-19T01:17:05.566Z,0
2016-03-19T01:18:05.565Z,0
2016-03-19T01:19:05.550Z,0
2016-03-19T01:20:05.552Z,0
2016-03-19T01:21:05.553Z,0
2016-03-19T01:22:05.555Z,0
2016-03-19T01:23:05.557Z,0
2016-03-19T01:24:05.544Z,0
2016-03-19T01:25:05.546Z,0
2016-03-19T01:26:05.564Z,0
2016-03-19T01:27:05.488Z,0
2016-03-19T01:28:05.553Z,0
2016-03-19T01:29:05.571Z,0
2016-03-19T01:30:05.559Z,0
2016-03-19T01:31:05.406Z,0
2016-03-19T01:32:05.548Z,0
2016-03-19T01:33:05.535Z,0
2016-03-19T01:34:05.553Z,0
2016-03-19T01:35:05.525Z,0
2016-03-19T01:36:05.528Z,0
2016-03-19T01:37:05.547Z,0
2016-03-19T01:38:05.533Z,0
2016-03-19T01:39:05.520Z,0
2016-03-19T01:40:05.522Z,0
2016-03-19T01:41:05.525Z,0
2016-03-19T01:42:05.622Z,0
2016-03-19T01:43:05.515Z,0
2016-03-19T01:44:05.393Z,0
2016-03-19T01:45:05.535Z,0
2016-03-19T01:46:05.508Z,0
2016-03-19T01:47:05.510Z,0
2016-03-19T01:48:05.497Z,0
2016-03-19T01:49:05.516Z,0
2016-03-19T01:50:05.502Z,0
2016-03-19T01:51:05.505Z,0
2016-03-19T01:52:05.507Z,0
2016-03-19T01:53:05.543Z,0
2016-03-19T01:54:05.513Z,0
2016-03-19T01:55:05.563Z,0
2016-03-19T01:56:05.503Z,0
2016-03-19T01:57:05.568Z,0
2016-03-19T01:58:05.524Z,0
2016-03-19T01:59:05.511Z,0
2016-03-19T02:00:05.499Z,0
2016-03-19T02:01:05.517Z,0
2016-03-19T02:02:05.504Z,0
2016-03-19T02:03:05.506Z,0
2016-03-19T02:04:05.494Z,0
2016-03-19T02:05:05.497Z,0
2016-03-19T02:06:05.500Z,0
2016-03-19T02:07:05.502Z,0
2016-03-19T02:08:05.472Z,0
2016-03-19T02:09:05.492Z,0
2016-03-19T02:10:05.478Z,0
2016-03-19T02:11:05.466Z,0
2016-03-19T02:12:05.531Z,0
2016-03-19T02:13:05.471Z,0
2016-03-19T02:14:05.489Z,0
2016-03-19T02:15:05.476Z,0
2016-03-19T02:16:05.480Z,0
2016-03-19T02:17:05.466Z,0
2016-03-19T02:18:05.468Z,0
2016-03-19T02:19:05.487Z,0
2016-03-19T02:20:05.474Z,0
2016-03-19T02:21:05.476Z,0
2016-03-19T02:22:05.479Z,0
2016-03-19T02:23:05.466Z,0
2016-03-19T02:24:05.454Z,0
2016-03-19T02:25:05.456Z,0
2016-03-19T02:26:05.459Z,0
2016-03-19T02:27:05.462Z,0
2016-03-19T02:28:05.465Z,0
2016-03-19T02:29:05.436Z,0
2016-03-19T02:30:05.453Z,0
2016-03-19T02:31:05.441Z,0
2016-03-19T02:32:05.444Z,0
2016-03-19T02:33:05.447Z,0
2016-03-19T02:34:05.450Z,0
2016-03-19T02:35:05.437Z,0
2016-03-19T02:36:05.455Z,0
2016-03-19T02:37:05.457Z,0
2016-03-19T02:38:05.444Z,0
2016-03-19T02:39:05.463Z,0
2016-03-19T02:40:05.450Z,0
2016-03-19T02:41:05.436Z,0
2016-03-19T02:42:05.424Z,0
2016-03-19T02:43:05.442Z,0
2016-03-19T02:44:05.445Z,0
2016-03-19T02:45:05.416Z,0
2016-03-19T02:46:05.450Z,0
2016-03-19T02:47:05.453Z,0
2016-03-19T02:48:05.440Z,0
2016-03-19T02:49:05.427Z,0
2016-03-19T02:50:05.430Z,0
2016-03-19T02:51:05.417Z,0
2016-03-19T02:52:05.419Z,0
2016-03-19T02:53:05.406Z,0
2016-03-19T02:54:05.424Z,0
2016-03-19T02:55:05.412Z,0
2016-03-19T02:56:05.415Z,0
2016-03-19T02:57:05.417Z,0
2016-03-19T02:58:05.420Z,0
2016-03-19T02:59:05.423Z,0
2016-03-19T03:00:05.409Z,0
2016-03-19T03:01:05.413Z,0
2016-03-19T03:02:05.400Z,0
2016-03-19T03:03:05.403Z,0
2016-03-19T03:04:05.405Z,0
2016-03-19T03:05:05.423Z,0
2016-03-19T03:06:05.270Z,0
2016-03-19T03:07:05.256Z,0
2016-03-19T03:08:05.400Z,0
2016-03-19T03:09:05.387Z,0
2016-03-19T03:10:05.233Z,0
2016-03-19T03:11:05.392Z,0
2016-03-19T03:12:05.380Z,0
2016-03-19T03:13:05.398Z,0
2016-03-19T03:14:05.385Z,0
2016-03-19T03:15:05.371Z,0
2016-03-19T03:16:05.530Z,0
2016-03-19T03:17:05.393Z,0
2016-03-19T03:18:05.396Z,0
2016-03-19T03:19:05.366Z,0
2016-03-19T03:20:05.370Z,0
2016-03-19T03:21:05.357Z,0
2016-03-19T03:22:05.390Z,0
2016-03-19T03:23:05.377Z,0
2016-03-19T03:24:05.380Z,0
2016-03-19T03:25:05.383Z,0
2016-03-19T03:26:05.354Z,0
2016-03-19T03:27:05.357Z,0
2016-03-19T03:28:05.360Z,0
2016-03-19T03:29:05.362Z,0
2016-03-19T03:30:05.365Z,0
2016-03-19T03:31:05.368Z,0
2016-03-19T03:32:05.356Z,0
2016-03-19T03:33:05.359Z,0
2016-03-19T03:34:05.361Z,0
2016-03-19T03:35:05.348Z,0
2016-03-19T03:36:05.350Z,0
2016-03-19T03:37:05.353Z,0
2016-03-19T03:38:05.356Z,0
2016-03-19T03:39:05.359Z,0
2016-03-19T03:40:05.330Z,0
2016-03-19T03:41:05.348Z,0
2016-03-19T03:42:05.336Z,0
2016-03-19T03:43:05.339Z,0
2016-03-19T03:44:05.341Z,0
2016-03-19T03:45:05.171Z,0
2016-03-19T03:46:05.346Z,0
2016-03-19T03:47:05.317Z,0
2016-03-19T03:48:05.351Z,0
2016-03-19T03:49:05.354Z,0
2016-03-19T03:50:05.340Z,0
2016-03-19T03:51:05.328Z,0
2016-03-19T03:52:05.330Z,0
2016-03-19T03:53:05.333Z,0
2016-03-19T03:54:05.180Z,0
2016-03-19T03:55:05.338Z,0
2016-03-19T03:56:05.310Z,0
2016-03-19T03:57:05.312Z,0
2016-03-19T03:58:05.316Z,0
2016-03-19T03:59:05.318Z,0
2016-03-19T04:00:05.398Z,0
2016-03-19T04:01:05.308Z,0
2016-03-19T04:02:05.311Z,0
2016-03-19T04:03:05.298Z,0
2016-03-19T04:04:05.316Z,0
2016-03-19T04:05:05.320Z,0
2016-03-19T04:06:05.306Z,0
2016-03-19T04:07:05.308Z,0
2016-03-19T04:08:05.295Z,0
2016-03-19T04:09:05.298Z,0
2016-03-19T04:10:05.286Z,0
2016-03-19T04:11:05.288Z,0
2016-03-19T04:12:05.291Z,0
2016-03-19T04:13:05.293Z,0
2016-03-19T04:14:05.281Z,0
2016-03-19T04:15:05.299Z,0
2016-03-19T04:16:05.286Z,0
2016-03-19T04:17:05.289Z,0
2016-03-19T04:18:05.275Z,0
2016-03-19T04:19:05.263Z,0
2016-03-19T04:20:05.297Z,0
2016-03-19T04:21:05.284Z,0
2016-03-19T04:22:05.271Z,0
2016-03-19T04:23:05.288Z,0
2016-03-19T04:24:05.276Z,0
2016-03-19T04:25:05.263Z,0
2016-03-19T04:26:05.265Z,0
2016-03-19T04:27:05.113Z,0
2016-03-19T04:28:05.256Z,0
2016-03-19T04:29:05.259Z,0
2016-03-19T04:30:05.276Z,0
2016-03-19T04:31:05.264Z,0
2016-03-19T04:32:05.251Z,0
2016-03-19T04:33:05.253Z,0
2016-03-19T04:34:05.256Z,0
2016-03-19T04:35:05.258Z,0
2016-03-19T04:36:05.246Z,0
2016-03-19T04:37:05.248Z,0
2016-03-19T04:38:05.251Z,0
2016-03-19T04:39:05.254Z,0
2016-03-19T04:40:05.256Z,0
2016-03-19T04:41:05.244Z,0
2016-03-19T04:42:05.246Z,0
2016-03-19T04:43:05.250Z,0
2016-03-19T04:44:05.236Z,0
2016-03-19T04:45:05.255Z,0
2016-03-19T04:46:05.225Z,0
2016-03-19T04:47:05.260Z,0
2016-03-19T04:48:05.231Z,0
2016-03-19T04:49:05.249Z,0
2016-03-19T04:50:05.222Z,0
2016-03-19T04:51:05.239Z,0
2016-03-19T04:52:05.242Z,0
2016-03-19T04:53:05.229Z,0
2016-03-19T04:54:05.201Z,0
2016-03-19T04:55:05.204Z,0
2016-03-19T04:56:05.206Z,0
2016-03-19T04:57:05.224Z,0
2016-03-19T04:58:05.227Z,0
2016-03-19T04:59:05.229Z,0
2016-03-19T05:00:05.217Z,0
2016-03-19T05:01:05.204Z,0
2016-03-19T05:02:05.191Z,0
2016-03-19T05:03:05.194Z,0
2016-03-19T05:04:05.196Z,0
2016-03-19T05:05:05.214Z,0
2016-03-19T05:06:05.202Z,0
2016-03-19T05:07:05.204Z,0
2016-03-19T05:08:05.222Z,0
2016-03-19T05:09:05.209Z,0
2016-03-19T05:10:05.040Z,0
2016-03-19T05:11:05.200Z,0
2016-03-19T05:12:05.202Z,0
2016-03-19T05:13:05.206Z,0
2016-03-19T05:14:05.192Z,0
2016-03-19T05:15:05.195Z,0
2016-03-19T05:16:05.197Z,0
2016-03-19T05:17:05.184Z,0
2016-03-19T05:18:05.171Z,0
2016-03-19T05:19:05.174Z,0
2016-03-19T05:20:05.176Z,0
2016-03-19T05:21:05.180Z,0
2016-03-19T05:22:05.166Z,0
2016-03-19T05:23:05.154Z,0
2016-03-19T05:24:05.156Z,0
2016-03-19T05:25:05.160Z,0
2016-03-19T05:26:05.177Z,5
2016-03-19T05:27:05.179Z,5
2016-03-19T05:28:05.168Z,5
2016-03-19T05:29:05.170Z,5
2016-03-19T05:30:05.173Z,5
2016-03-19T05:31:05.003Z,5
2016-03-19T05:32:05.162Z,5
2016-03-19T05:33:05.196Z,5
2016-03-19T05:34:05.151Z,10
2016-03-19T05:35:05.171Z,10
2016-03-19T05:36:05.157Z,10
2016-03-19T05:37:05.160Z,10
2016-03-19T05:38:05.162Z,15
2016-03-19T05:39:05.150Z,15
2016-03-19T05:40:05.137Z,15
2016-03-19T05:41:05.123Z,20
2016-03-19T05:42:05.158Z,20
2016-03-19T05:43:05.144Z,25
2016-03-19T05:44:05.132Z,25
2016-03-19T05:45:05.119Z,25
2016-03-19T05:46:05.153Z,25
2016-03-19T05:47:05.125Z,25
2016-03-19T05:48:05.127Z,30
2016-03-19T05:49:05.145Z,30
2016-03-19T05:50:05.116Z,35
2016-03-19T05:51:05.120Z,35
2016-03-19T05:52:05.107Z,40
2016-03-19T05:53:05.125Z,50
2016-03-19T05:54:05.174Z,45
2016-03-19T05:55:05.115Z,45
2016-03-19T05:56:05.102Z,50
2016-03-19T05:57:05.104Z,50
2016-03-19T05:58:05.123Z,55
2016-03-19T05:59:05.110Z,60
2016-03-19T06:00:05.144Z,65
2016-03-19T06:01:05.099Z,65
2016-03-19T06:02:05.117Z,70
2016-03-19T06:03:05.137Z,70
2016-03-19T06:04:05.107Z,75
2016-03-19T06:05:05.110Z,80
2016-03-19T06:06:05.097Z,85
2016-03-19T06:07:05.100Z,95
2016-03-19T06:08:05.103Z,100
2016-03-19T06:09:05.105Z,100
2016-03-19T06:10:05.109Z,105
2016-03-19T06:11:05.095Z,105
2016-03-19T06:12:05.081Z,110
2016-03-19T06:13:05.085Z,120
2016-03-19T06:14:05.087Z,120
2016-03-19T06:15:05.090Z,125
2016-03-19T06:16:05.108Z,130
2016-03-19T06:17:05.095Z,135
2016-03-19T06:18:05.114Z,140
2016-03-19T06:19:05.085Z,145
2016-03-19T06:20:05.119Z,150
2016-03-19T06:21:05.106Z,155
2016-03-19T06:22:05.078Z,165
2016-03-19T06:23:05.096Z,170
2016-03-19T06:24:05.068Z,170
2016-03-19T06:25:05.085Z,175
2016-03-19T06:26:05.105Z,180
2016-03-19T06:27:05.107Z,185
2016-03-19T06:28:05.093Z,190
2016-03-19T06:29:05.081Z,195
2016-03-19T06:30:05.084Z,200
2016-03-19T06:31:05.074Z,200
2016-03-19T06:32:05.076Z,190
2016-03-19T06:33:05.095Z,190
2016-03-19T06:34:05.082Z,200
2016-03-19T06:35:05.068Z,205
2016-03-19T06:36:05.071Z,215
2016-03-19T06:37:05.090Z,235
2016-03-19T06:38:05.076Z,225
2016-03-19T06:39:05.079Z,230
2016-03-19T06:40:04.925Z,230
2016-03-19T06:41:05.085Z,230
2016-03-19T06:42:05.087Z,235
2016-03-19T06:43:05.090Z,250
2016-03-19T06:44:05.078Z,255
2016-03-19T06:45:05.095Z,265
2016-03-19T06:46:05.098Z,270
2016-03-19T06:47:05.085Z,270
2016-03-19T06:48:05.089Z,285
2016-03-19T06:49:05.091Z,275
2016-03-19T06:50:05.109Z,280
2016-03-19T06:51:05.096Z,285
2016-03-19T06:52:05.099Z,290
2016-03-19T06:53:05.086Z,305
2016-03-19T06:54:05.104Z,305
2016-03-19T06:55:05.091Z,300
2016-03-19T06:56:05.094Z,305
2016-03-19T06:57:05.127Z,310
2016-03-19T06:58:05.083Z,310
2016-03-19T06:59:05.118Z,315
2016-03-19T07:00:05.121Z,325
2016-03-19T07:01:05.107Z,340
2016-03-19T07:02:05.126Z,350
2016-03-19T07:03:05.128Z,340
2016-03-19T07:04:05.132Z,355
2016-03-19T07:05:05.118Z,365
2016-03-19T07:06:04.387Z,350
2016-03-19T07:07:05.124Z,360
2016-03-19T07:08:05.110Z,375
2016-03-19T07:09:05.145Z,380
2016-03-19T07:10:05.132Z,380
2016-03-19T07:11:05.134Z,385
2016-03-19T07:12:05.137Z,385
2016-03-19T07:13:05.139Z,395
2016-03-19T07:14:05.142Z,405
2016-03-19T07:15:05.161Z,390
2016-03-19T07:16:05.131Z,410
2016-03-19T07:17:05.135Z,420
2016-03-19T07:18:05.169Z,405
2016-03-19T07:19:05.359Z,420
2016-03-19T07:20:05.158Z,440
2016-03-19T07:21:05.161Z,445
2016-03-19T07:22:05.164Z,445
2016-03-19T07:23:05.167Z,450
2016-03-19T07:24:05.013Z,455
2016-03-19T07:25:05.188Z,460
2016-03-19T07:26:05.175Z,470
2016-03-19T07:27:05.177Z,475
2016-03-19T07:28:05.211Z,470
2016-03-19T07:29:05.214Z,485
2016-03-19T07:30:05.186Z,475
2016-03-19T07:31:05.204Z,485
2016-03-19T07:32:05.207Z,475
2016-03-19T07:33:05.210Z,485
2016-03-19T07:34:05.227Z,485
2016-03-19T07:35:05.215Z,505
2016-03-19T07:36:05.202Z,510
2016-03-19T07:37:05.235Z,500
2016-03-19T07:38:05.238Z,520
2016-03-19T07:39:05.226Z,525
2016-03-19T07:40:05.071Z,515
2016-03-19T07:41:05.262Z,515
2016-03-19T07:42:05.264Z,520
2016-03-19T07:43:05.190Z,530
2016-03-19T07:44:05.270Z,540
2016-03-19T07:45:05.257Z,550
2016-03-19T07:46:05.275Z,560
2016-03-19T07:47:05.262Z,540
2016-03-19T07:48:05.297Z,520
2016-03-19T07:49:05.283Z,505
2016-03-19T07:50:05.317Z,490
2016-03-19T07:51:05.289Z,495
2016-03-19T07:52:05.308Z,520
2016-03-19T07:53:05.294Z,540
2016-03-19T07:54:05.313Z,540
2016-03-19T07:55:05.299Z,520
2016-03-19T07:56:05.318Z,520
2016-03-19T07:57:05.335Z,530
2016-03-19T07:58:05.229Z,550
2016-03-19T07:59:05.357Z,535
2016-03-19T08:00:05.344Z,510
2016-03-19T08:01:05.346Z,510
2016-03-19T08:02:05.349Z,510
2016-03-19T08:03:05.352Z,500
2016-03-19T08:04:05.354Z,415
2016-03-19T08:05:05.374Z,275
2016-03-19T08:06:05.376Z,215
2016-03-19T08:07:05.379Z,205
2016-03-19T08:08:05.381Z,200
2016-03-19T08:09:05.384Z,195
2016-03-19T08:10:05.386Z,195
2016-03-19T08:11:05.498Z,195
2016-03-19T08:12:05.423Z,195
2016-03-19T08:13:05.442Z,190
2016-03-19T08:14:05.429Z,190
2016-03-19T08:15:05.432Z,190
2016-03-19T08:16:05.434Z,195
2016-03-19T08:17:05.453Z,190
2016-03-19T08:18:05.439Z,190
2016-03-19T08:19:05.426Z,190
2016-03-19T08:20:05.461Z,190
2016-03-19T08:21:05.448Z,190
2016-03-19T08:22:05.481Z,190
2016-03-19T08:23:05.484Z,185
2016-03-19T08:24:05.472Z,185
2016-03-19T08:25:05.505Z,185
2016-03-19T08:26:05.492Z,185
2016-03-19T08:27:05.511Z,185
2016-03-19T08:28:05.514Z,185
2016-03-19T08:29:05.532Z,185
2016-03-19T08:30:05.518Z,180
2016-03-19T08:31:05.505Z,180
2016-03-19T08:32:05.524Z,180
2016-03-19T08:33:05.511Z,180
2016-03-19T08:34:05.561Z,180
2016-03-19T08:35:05.564Z,180
2016-03-19T08:36:05.551Z,180
2016-03-19T08:37:05.537Z,180
2016-03-19T08:38:05.556Z,175
2016-03-19T08:39:05.543Z,175
2016-03-19T08:40:05.576Z,175
2016-03-19T08:41:05.579Z,175
2016-03-19T08:42:05.582Z,175
2016-03-19T08:43:05.929Z,175
2016-03-19T08:44:05.587Z,175
2016-03-19T08:45:05.621Z,175
2016-03-19T08:46:05.609Z,175
2016-03-19T08:47:05.626Z,175
2016-03-19T08:48:05.629Z,170
2016-03-19T08:49:05.631Z,170
2016-03-19T08:50:05.682Z,170
2016-03-19T08:51:05.637Z,170
2016-03-19T08:52:05.639Z,170
2016-03-19T08:53:05.675Z,170
2016-03-19T08:54:05.645Z,170
2016-03-19T08:55:05.648Z,170
2016-03-19T08:56:05.682Z,170
2016-03-19T08:57:05.654Z,165
2016-03-19T08:58:05.672Z,165
2016-03-19T08:59:05.674Z,165
2016-03-19T09:00:05.694Z,165
2016-03-19T09:01:05.680Z,165
2016-03-19T09:02:05.714Z,160
2016-03-19T09:03:05.701Z,160
2016-03-19T09:04:05.704Z,160
2016-03-19T09:05:05.722Z,160
2016-03-19T09:06:05.709Z,160
2016-03-19T09:07:05.713Z,160
2016-03-19T09:08:05.715Z,160
2016-03-19T09:09:05.749Z,160
2016-03-19T09:10:05.751Z,155
2016-03-19T09:11:05.754Z,155
2016-03-19T09:12:05.740Z,155
2016-03-19T09:13:05.759Z,155
2016-03-19T09:14:05.745Z,155
2016-03-19T09:15:05.781Z,155
2016-03-19T09:16:05.783Z,155
2016-03-19T09:17:05.786Z,150
2016-03-19T09:18:05.789Z,150
2016-03-19T09:19:05.791Z,150
2016-03-19T09:20:05.794Z,150
2016-03-19T09:21:05.780Z,150
2016-03-19T09:22:05.815Z,150
2016-03-19T09:23:05.833Z,150
2016-03-19T09:24:06.195Z,150
2016-03-19T09:25:05.807Z,145
2016-03-19T09:26:05.841Z,145
2016-03-19T09:27:05.828Z,145
2016-03-19T09:28:05.830Z,145
2016-03-19T09:29:05.833Z,145
2016-03-19T09:30:05.852Z,145
2016-03-19T09:31:05.886Z,145
2016-03-19T09:32:05.888Z,145
2016-03-19T09:33:05.860Z,140
2016-03-19T09:34:05.878Z,140
2016-03-19T09:35:05.880Z,140
2016-03-19T09:36:05.883Z,140
2016-03-19T09:37:05.886Z,140
2016-03-19T09:38:05.889Z,140
2016-03-19T09:39:05.891Z,140
2016-03-19T09:40:05.894Z,140
2016-03-19T09:41:05.897Z,140
2016-03-19T09:42:05.899Z,140
2016-03-19T09:43:05.902Z,140
2016-03-19T09:44:05.921Z,140
2016-03-19T09:45:05.923Z,140
2016-03-19T09:46:05.910Z,135
2016-03-19T09:47:05.944Z,135
2016-03-19T09:48:05.932Z,135
2016-03-19T09:49:05.950Z,135
2016-03-19T09:50:05.937Z,135
2016-03-19T09:51:05.971Z,135
2016-03-19T09:52:05.942Z,135
2016-03-19T09:53:05.961Z,135
2016-03-19T09:54:05.963Z,135
2016-03-19T09:55:05.966Z,135
2016-03-19T09:56:05.984Z,130
2016-03-19T09:57:06.002Z,130
2016-03-19T09:58:05.817Z,130
2016-03-19T09:59:06.024Z,130
2016-03-19T10:00:06.027Z,130
2016-03-19T10:01:06.014Z,130
2016-03-19T10:02:06.016Z,130
2016-03-19T10:03:06.019Z,125
2016-03-19T10:04:06.037Z,125
2016-03-19T10:05:06.024Z,125
2016-03-19T10:06:06.011Z,125
2016-03-19T10:07:06.077Z,125
2016-03-19T10:08:06.032Z,125
2016-03-19T10:09:06.035Z,125
2016-03-19T10:10:05.912Z,125
2016-03-19T10:11:06.056Z,125
2016-03-19T10:12:06.043Z,125
2016-03-19T10:13:06.046Z,120
2016-03-19T10:14:06.065Z,120
2016-03-19T10:15:06.053Z,120
2016-03-19T10:16:06.055Z,120
2016-03-19T10:17:06.027Z,120
2016-03-19T10:18:06.014Z,120
2016-03-19T10:19:06.015Z,120
2016-03-19T10:20:05.997Z,120
2016-03-19T10:21:05.994Z,120
2016-03-19T10:22:06.023Z,120
2016-03-19T10:23:05.989Z,120
2016-03-19T10:24:06.001Z,115
2016-03-19T10:25:06.032Z,115
2016-03-19T10:26:05.987Z,115
2016-03-19T10:27:06.003Z,115
2016-03-19T10:28:06.004Z,115
2016-03-19T10:29:06.005Z,115
2016-03-19T10:30:06.022Z,115
2016-03-19T10:31:06.039Z,115
2016-03-19T10:32:06.010Z,115
2016-03-19T10:33:06.043Z,115
2016-03-19T10:34:06.014Z,115
2016-03-19T10:35:06.033Z,115
2016-03-19T10:36:06.050Z,115
2016-03-19T10:37:06.037Z,115
2016-03-19T10:38:06.039Z,110
2016-03-19T10:39:06.026Z,110
2016-03-19T10:40:05.872Z,110
2016-03-19T10:41:06.016Z,110
2016-03-19T10:42:06.096Z,110
2016-03-19T10:43:06.067Z,110
2016-03-19T10:44:06.086Z,110
2016-03-19T10:45:06.058Z,110
2016-03-19T10:46:06.045Z,110
2016-03-19T10:47:06.078Z,110
2016-03-19T10:48:06.081Z,110
2016-03-19T10:49:06.068Z,110
2016-03-19T10:50:06.102Z,110
2016-03-19T10:51:06.089Z,110
2016-03-19T10:52:06.091Z,110
2016-03-19T10:53:06.094Z,110
2016-03-19T10:54:06.082Z,110
2016-03-19T10:55:06.132Z,110
2016-03-19T10:56:06.103Z,110
2016-03-19T10:57:06.105Z,110
2016-03-19T10:58:06.124Z,105
2016-03-19T10:59:06.095Z,105
2016-03-19T11:00:06.098Z,105
2016-03-19T11:01:06.179Z,105
2016-03-19T11:02:06.103Z,105
2016-03-19T11:03:06.121Z,105
2016-03-19T11:04:06.124Z,105
2016-03-19T11:05:06.126Z,105
2016-03-19T11:06:06.129Z,105
2016-03-19T11:07:06.148Z,105
2016-03-19T11:08:06.150Z,105
2016-03-19T11:09:06.122Z,105
2016-03-19T11:10:06.125Z,100
2016-03-19T11:11:06.143Z,100
2016-03-19T11:12:06.145Z,100
2016-03-19T11:13:06.148Z,100
2016-03-19T11:14:06.167Z,100
2016-03-19T11:15:06.153Z,100
2016-03-19T11:16:06.156Z,100
2016-03-19T11:17:06.159Z,100
2016-03-19T11:18:06.146Z,100
2016-03-19T11:19:06.196Z,100
2016-03-19T11:20:06.182Z,100
2016-03-19T11:21:06.155Z,100
2016-03-19T11:22:06.172Z,100
2016-03-19T11:23:06.222Z,100
2016-03-19T11:24:06.177Z,100
2016-03-19T11:25:06.180Z,100
2016-03-19T11:26:06.199Z,100
2016-03-19T11:27:06.185Z,100
2016-03-19T11:28:06.205Z,100
2016-03-19T11:29:06.191Z,95
2016-03-19T11:30:06.194Z,95
2016-03-19T11:31:06.040Z,95
2016-03-19T11:32:06.199Z,95
2016-03-19T11:33:06.201Z,95
2016-03-19T11:34:06.220Z,95
2016-03-19T11:35:06.207Z,95
2016-03-19T11:36:06.195Z,95
2016-03-19T11:37:06.213Z,95
2016-03-19T11:38:06.232Z,95
2016-03-19T11:39:06.234Z,95
2016-03-19T11:40:06.206Z,95
2016-03-19T11:41:06.223Z,90
2016-03-19T11:42:06.211Z,90
2016-03-19T11:43:06.228Z,90
2016-03-19T11:44:06.247Z,90
2016-03-19T11:45:06.233Z,90
2016-03-19T11:46:06.236Z,90
2016-03-19T11:47:06.240Z,90
2016-03-19T11:48:06.242Z,90
2016-03-19T11:49:06.230Z,90
2016-03-19T11:50:06.264Z,90
2016-03-19T11:51:06.266Z,90
2016-03-19T11:52:06.252Z,90
2016-03-19T11:53:06.288Z,90
2016-03-19T11:54:06.258Z,90
2016-03-19T11:55:06.277Z,90
2016-03-19T11:56:06.263Z,90
2016-03-19T11:57:06.251Z,90
2016-03-19T11:58:06.301Z,90
2016-03-19T11:59:06.271Z,85
2016-03-19T12:00:06.259Z,85
2016-03-19T12:01:06.293Z,85
2016-03-19T12:02:06.264Z,85
2016-03-19T12:03:06.268Z,85
2016-03-19T12:04:06.317Z,85
2016-03-19T12:05:06.320Z,85
2016-03-19T12:06:06.290Z,85
2016-03-19T12:07:06.293Z,85
2016-03-19T12:08:06.296Z,85
2016-03-19T12:09:06.314Z,85
2016-03-19T12:10:06.301Z,85
2016-03-19T12:11:06.320Z,85
2016-03-19T12:12:06.307Z,85
2016-03-19T12:13:06.295Z,85
2016-03-19T12:14:06.312Z,85
2016-03-19T12:15:06.284Z,85
2016-03-19T12:16:06.317Z,85
2016-03-19T12:17:06.305Z,85
2016-03-19T12:18:06.307Z,85
2016-03-19T12:19:06.342Z,85
2016-03-19T12:20:06.344Z,85
2016-03-19T12:21:06.347Z,85
2016-03-19T12:22:06.349Z,80
2016-03-19T12:23:06.336Z,85
2016-03-19T12:24:06.324Z,80
2016-03-19T12:25:06.342Z,80
2016-03-19T12:26:06.344Z,80
2016-03-19T12:27:06.362Z,80
2016-03-19T12:28:06.350Z,80
2016-03-19T12:29:06.352Z,80
2016-03-19T12:30:06.355Z,80
2016-03-19T12:31:06.358Z,80
2016-03-19T12:32:06.376Z,80
2016-03-19T12:33:06.348Z,80
2016-03-19T12:34:06.365Z,80
2016-03-19T12:35:06.369Z,80
2016-03-19T12:36:06.387Z,80
2016-03-19T12:37:06.358Z,80
2016-03-19T12:38:06.376Z,80
2016-03-19T12:39:06.364Z,80
2016-03-19T12:40:06.367Z,80
2016-03-19T12:41:06.401Z,80
2016-03-19T12:42:06.387Z,80
2016-03-19T12:43:06.375Z,80
2016-03-19T12:44:06.424Z,80
2016-03-19T12:45:06.381Z,80
2016-03-19T12:46:06.398Z,80
2016-03-19T12:47:06.400Z,80
2016-03-19T12:48:06.404Z,75
2016-03-19T12:49:06.422Z,75
2016-03-19T12:50:06.409Z,75
2016-03-19T12:51:06.412Z,75
2016-03-19T12:52:06.430Z,75
2016-03-19T12:53:06.401Z,75
2016-03-19T12:54:06.420Z,75
2016-03-19T12:55:06.422Z,75
2016-03-19T12:56:06.394Z,75
2016-03-19T12:57:06.427Z,75
2016-03-19T12:58:06.415Z,75
2016-03-19T12:59:06.449Z,75
2016-03-19T13:00:06.420Z,75
2016-03-19T13:01:06.424Z,75
2016-03-19T13:02:06.285Z,75
2016-03-19T13:03:06.429Z,75
2016-03-19T13:04:06.431Z,75
2016-03-19T13:05:06.293Z,75
2016-03-19T13:06:06.437Z,75
2016-03-19T13:07:06.454Z,75
2016-03-19T13:08:06.442Z,75
2016-03-19T13:09:06.445Z,75
2016-03-19T13:10:06.462Z,75
2016-03-19T13:11:06.451Z,75
2016-03-19T13:12:06.453Z,75
2016-03-19T13:13:06.456Z,75
2016-03-19T13:14:06.317Z,70
2016-03-19T13:15:06.461Z,70
2016-03-19T13:16:06.464Z,70
2016-03-19T13:17:06.450Z,70
2016-03-19T13:18:06.453Z,70
2016-03-19T13:19:06.472Z,70
2016-03-19T13:20:06.474Z,70
2016-03-19T13:21:06.477Z,70
2016-03-19T13:22:06.480Z,70
2016-03-19T13:23:06.482Z,70
2016-03-19T13:24:06.485Z,70
2016-03-19T13:25:06.503Z,70
2016-03-19T13:26:06.475Z,70
2016-03-19T13:27:06.493Z,70
2016-03-19T13:28:06.510Z,70
2016-03-19T13:29:06.529Z,70
2016-03-19T13:30:06.485Z,70
2016-03-19T13:31:06.488Z,70
2016-03-19T13:32:06.522Z,70
2016-03-19T13:33:06.509Z,70
2016-03-19T13:34:06.512Z,70
2016-03-19T13:35:06.514Z,70
2016-03-19T13:36:06.518Z,70
2016-03-19T13:37:06.504Z,70
2016-03-19T13:38:06.538Z,70
2016-03-19T13:39:06.525Z,70
2016-03-19T13:40:06.528Z,70
2016-03-19T13:41:06.515Z,70
2016-03-19T13:42:06.518Z,70
2016-03-19T13:43:06.521Z,70
2016-03-19T13:44:06.523Z,70
2016-03-19T13:45:06.542Z,70
2016-03-19T13:46:06.529Z,70
2016-03-19T13:47:06.516Z,70
2016-03-19T13:48:06.533Z,70
2016-03-19T13:49:06.536Z,70
2016-03-19T13:50:06.539Z,70
2016-03-19T13:51:06.527Z,70
2016-03-19T13:52:06.561Z,70
2016-03-19T13:53:06.533Z,65
2016-03-19T13:54:06.549Z,65
2016-03-19T13:55:06.583Z,65
2016-03-19T13:56:06.555Z,65
2016-03-19T13:57:06.558Z,65
2016-03-19T13:58:06.560Z,65
2016-03-19T13:59:06.548Z,65
2016-03-19T14:00:06.613Z,65
2016-03-19T14:01:06.568Z,65
2016-03-19T14:02:06.572Z,65
2016-03-19T14:03:06.590Z,65
2016-03-19T14:04:06.577Z,65
2016-03-19T14:05:06.580Z,65
2016-03-19T14:06:06.582Z,65
2016-03-19T14:07:06.570Z,65
2016-03-19T14:08:06.572Z,65
2016-03-19T14:09:06.575Z,65
2016-03-19T14:10:06.593Z,65
2016-03-19T14:11:06.596Z,65
2016-03-19T14:12:06.583Z,65
2016-03-19T14:13:06.601Z,65
2016-03-19T14:14:06.589Z,65
2016-03-19T14:15:06.606Z,65
2016-03-19T14:16:06.609Z,65